sensor_id;sensor_type;location;lat;lon;timestamp;temperature;humidity
7388;DHT22;3735;50.136;11.062;2022-11-03T00:01:07;2.50;99.90
7388;DHT22;3735;50.136;11.062;2022-11-03T00:03:33;2.50;99.90
7388;DHT22;3735;50.136;11.062;2022-11-03T00:05:59;2.50;99.90
7388;DHT22;3735;50.136;11.062;2022-11-03T00:08:36;2.50;99.90
7388;DHT22;3735;50.136;11.062;2022-11-03T00:13:37;2.50;99.90
7388;DHT22;3735;50.136;11.062;2022-11-03T00:16:05;2.50;99.90
7388;DHT22;3735;50.136;11.062;2022-11-03T00:18:32;2.50;99.90
7388;DHT22;3735;50.136;11.062;2022-11-03T00:21:03;2.50;99.90
7388;DHT22;3735;50.136;11.062;2022-11-03T00:23:33;2.60;99.90
7388;DHT22;3735;50.136;11.062;2022-11-03T00:28:33;2.70;99.90
7388;DHT22;3735;50.136;11.062;2022-11-03T00:31:01;2.70;99.90
7388;DHT22;3735;50.136;11.062;2022-11-03T00:33:33;2.70;99.90
7388;DHT22;3735;50.136;11.062;2022-11-03T00:36:00;2.70;99.90
7388;DHT22;3735;50.136;11.062;2022-11-03T00:38:27;2.80;99.90
7388;DHT22;3735;50.136;11.062;2022-11-03T00:41:01;2.80;99.90
7388;DHT22;3735;50.136;11.062;2022-11-03T00:43:28;2.80;99.90
7388;DHT22;3735;50.136;11.062;2022-11-03T00:45:55;2.80;99.90
7388;DHT22;3735;50.136;11.062;2022-11-03T00:48:22;2.80;99.90
7388;DHT22;3735;50.136;11.062;2022-11-03T00:51:03;2.90;99.90
7388;DHT22;3735;50.136;11.062;2022-11-03T00:53:34;2.90;99.90
7388;DHT22;3735;50.136;11.062;2022-11-03T00:56:05;2.90;99.90
7388;DHT22;3735;50.136;11.062;2022-11-03T00:58:32;2.90;99.90
7388;DHT22;3735;50.136;11.062;2022-11-03T01:01:06;3.00;99.90
7388;DHT22;3735;50.136;11.062;2022-11-03T01:03:45;3.00;99.90
7388;DHT22;3735;50.136;11.062;2022-11-03T01:06:36;3.00;99.90
7388;DHT22;3735;50.136;11.062;2022-11-03T01:17:11;3.10;99.90
7388;DHT22;3735;50.136;11.062;2022-11-03T01:19:41;3.00;99.90
7388;DHT22;3735;50.136;11.062;2022-11-03T01:22:07;2.90;99.90
7388;DHT22;3735;50.136;11.062;2022-11-03T01:24:36;2.80;99.90
7388;DHT22;3735;50.136;11.062;2022-11-03T01:27:05;2.70;99.90
7388;DHT22;3735;50.136;11.062;2022-11-03T01:29:31;2.60;99.90
7388;DHT22;3735;50.136;11.062;2022-11-03T01:31:57;2.60;99.90
7388;DHT22;3735;50.136;11.062;2022-11-03T01:34:23;2.60;99.90
7388;DHT22;3735;50.136;11.062;2022-11-03T01:36:49;2.60;99.90
7388;DHT22;3735;50.136;11.062;2022-11-03T01:39:16;2.60;99.90
7388;DHT22;3735;50.136;11.062;2022-11-03T01:41:44;2.60;99.90
7388;DHT22;3735;50.136;11.062;2022-11-03T01:50:09;2.50;99.90
7388;DHT22;3735;50.136;11.062;2022-11-03T01:52:43;2.60;99.90
7388;DHT22;3735;50.136;11.062;2022-11-03T01:55:31;2.60;99.90
7388;DHT22;3735;50.136;11.062;2022-11-03T01:58:14;2.50;99.90
7388;DHT22;3735;50.136;11.062;2022-11-03T02:00:47;2.40;99.90
7388;DHT22;3735;50.136;11.062;2022-11-03T02:03:16;2.30;99.90
7388;DHT22;3735;50.136;11.062;2022-11-03T02:05:44;2.20;99.90
7388;DHT22;3735;50.136;11.062;2022-11-03T02:10:46;2.00;99.90
7388;DHT22;3735;50.136;11.062;2022-11-03T02:13:31;1.90;99.90
7388;DHT22;3735;50.136;11.062;2022-11-03T02:15:58;1.80;99.90
7388;DHT22;3735;50.136;11.062;2022-11-03T02:18:30;1.80;99.90
7388;DHT22;3735;50.136;11.062;2022-11-03T02:21:23;1.80;99.90
7388;DHT22;3735;50.136;11.062;2022-11-03T02:24:00;1.70;99.90
7388;DHT22;3735;50.136;11.062;2022-11-03T02:26:35;1.70;99.90
7388;DHT22;3735;50.136;11.062;2022-11-03T02:29:01;1.90;99.90
7388;DHT22;3735;50.136;11.062;2022-11-03T02:31:41;2.10;99.90
7388;DHT22;3735;50.136;11.062;2022-11-03T02:34:19;2.30;99.90
7388;DHT22;3735;50.136;11.062;2022-11-03T02:37:07;2.30;99.90
7388;DHT22;3735;50.136;11.062;2022-11-03T02:39:49;2.30;99.90
7388;DHT22;3735;50.136;11.062;2022-11-03T02:42:19;2.30;99.90
7388;DHT22;3735;50.136;11.062;2022-11-03T02:44:48;2.30;99.90
7388;DHT22;3735;50.136;11.062;2022-11-03T02:47:17;2.30;99.90
7388;DHT22;3735;50.136;11.062;2022-11-03T02:49:48;2.50;99.90
7388;DHT22;3735;50.136;11.062;2022-11-03T03:00:48;2.60;99.90
7388;DHT22;3735;50.136;11.062;2022-11-03T03:03:25;2.40;99.90
7388;DHT22;3735;50.136;11.062;2022-11-03T03:06:05;2.40;99.90
7388;DHT22;3735;50.136;11.062;2022-11-03T03:08:37;2.40;99.90
7388;DHT22;3735;50.136;11.062;2022-11-03T03:11:10;2.40;99.90
7388;DHT22;3735;50.136;11.062;2022-11-03T03:13:39;2.40;99.90
7388;DHT22;3735;50.136;11.062;2022-11-03T03:16:22;2.40;99.90
7388;DHT22;3735;50.136;11.062;2022-11-03T03:21:52;2.30;99.90
7388;DHT22;3735;50.136;11.062;2022-11-03T03:24:41;2.20;99.90
7388;DHT22;3735;50.136;11.062;2022-11-03T03:27:15;2.20;99.90
7388;DHT22;3735;50.136;11.062;2022-11-03T03:29:55;2.20;99.90
7388;DHT22;3735;50.136;11.062;2022-11-03T03:32:26;2.20;99.90
7388;DHT22;3735;50.136;11.062;2022-11-03T03:34:55;2.10;99.90
7388;DHT22;3735;50.136;11.062;2022-11-03T03:37:25;2.00;99.90
7388;DHT22;3735;50.136;11.062;2022-11-03T03:39:55;1.90;99.90
7388;DHT22;3735;50.136;11.062;2022-11-03T03:42:26;1.90;99.90
7388;DHT22;3735;50.136;11.062;2022-11-03T03:44:54;1.80;99.90
7388;DHT22;3735;50.136;11.062;2022-11-03T03:47:26;1.80;99.90
7388;DHT22;3735;50.136;11.062;2022-11-03T03:49:54;1.80;99.90
7388;DHT22;3735;50.136;11.062;2022-11-03T03:52:21;1.80;99.90
7388;DHT22;3735;50.136;11.062;2022-11-03T03:54:47;1.80;99.90
7388;DHT22;3735;50.136;11.062;2022-11-03T03:57:15;1.80;99.90
7388;DHT22;3735;50.136;11.062;2022-11-03T03:59:44;1.80;99.90
7388;DHT22;3735;50.136;11.062;2022-11-03T04:02:10;1.90;99.90
7388;DHT22;3735;50.136;11.062;2022-11-03T04:04:37;1.90;99.90
7388;DHT22;3735;50.136;11.062;2022-11-03T04:07:03;1.90;99.90
7388;DHT22;3735;50.136;11.062;2022-11-03T04:09:48;1.80;99.90
7388;DHT22;3735;50.136;11.062;2022-11-03T04:12:14;1.90;99.90
7388;DHT22;3735;50.136;11.062;2022-11-03T04:14:58;2.00;99.90
7388;DHT22;3735;50.136;11.062;2022-11-03T04:17:44;2.20;99.90
7388;DHT22;3735;50.136;11.062;2022-11-03T04:20:29;2.40;99.90
7388;DHT22;3735;50.136;11.062;2022-11-03T04:23:14;2.40;99.90
7388;DHT22;3735;50.136;11.062;2022-11-03T04:25:42;2.40;99.90
7388;DHT22;3735;50.136;11.062;2022-11-03T04:28:14;2.30;99.90
7388;DHT22;3735;50.136;11.062;2022-11-03T04:30:40;2.20;99.90
7388;DHT22;3735;50.136;11.062;2022-11-03T04:33:17;2.10;99.90
7388;DHT22;3735;50.136;11.062;2022-11-03T04:35:45;2.00;99.90
7388;DHT22;3735;50.136;11.062;2022-11-03T04:40:44;2.00;99.90
7388;DHT22;3735;50.136;11.062;2022-11-03T04:43:13;2.00;99.90
7388;DHT22;3735;50.136;11.062;2022-11-03T04:45:42;2.00;99.90
7388;DHT22;3735;50.136;11.062;2022-11-03T04:48:30;2.00;99.90
7388;DHT22;3735;50.136;11.062;2022-11-03T04:50:59;2.00;99.90
7388;DHT22;3735;50.136;11.062;2022-11-03T04:53:34;2.00;99.90
7388;DHT22;3735;50.136;11.062;2022-11-03T04:56:00;2.00;99.90
7388;DHT22;3735;50.136;11.062;2022-11-03T04:58:31;2.00;99.90
7388;DHT22;3735;50.136;11.062;2022-11-03T05:00:59;2.00;99.90
7388;DHT22;3735;50.136;11.062;2022-11-03T05:03:30;1.90;99.90
7388;DHT22;3735;50.136;11.062;2022-11-03T05:06:00;1.80;99.90
7388;DHT22;3735;50.136;11.062;2022-11-03T05:08:47;1.80;99.90
7388;DHT22;3735;50.136;11.062;2022-11-03T05:14:06;1.70;99.90
7388;DHT22;3735;50.136;11.062;2022-11-03T05:16:45;1.70;99.90
7388;DHT22;3735;50.136;11.062;2022-11-03T05:19:24;1.70;99.90
7388;DHT22;3735;50.136;11.062;2022-11-03T05:21:55;1.70;99.90
7388;DHT22;3735;50.136;11.062;2022-11-03T05:24:23;1.70;99.90
7388;DHT22;3735;50.136;11.062;2022-11-03T05:26:50;1.60;99.90
7388;DHT22;3735;50.136;11.062;2022-11-03T05:29:36;1.50;99.90
7388;DHT22;3735;50.136;11.062;2022-11-03T05:32:11;1.50;99.90
7388;DHT22;3735;50.136;11.062;2022-11-03T05:34:50;1.50;99.90
7388;DHT22;3735;50.136;11.062;2022-11-03T05:40:37;1.50;99.90
7388;DHT22;3735;50.136;11.062;2022-11-03T05:42:59;1.50;99.90
7388;DHT22;3735;50.136;11.062;2022-11-03T05:45:32;1.50;99.90
7388;DHT22;3735;50.136;11.062;2022-11-03T05:48:01;1.60;99.90
7388;DHT22;3735;50.136;11.062;2022-11-03T05:50:33;1.60;99.90
7388;DHT22;3735;50.136;11.062;2022-11-03T05:53:18;1.60;99.90
7388;DHT22;3735;50.136;11.062;2022-11-03T05:55:52;1.70;99.90
7388;DHT22;3735;50.136;11.062;2022-11-03T05:58:39;1.70;99.90
7388;DHT22;3735;50.136;11.062;2022-11-03T06:01:25;1.80;99.90
7388;DHT22;3735;50.136;11.062;2022-11-03T06:03:55;1.80;99.90
7388;DHT22;3735;50.136;11.062;2022-11-03T06:06:36;1.90;99.90
7388;DHT22;3735;50.136;11.062;2022-11-03T06:09:12;1.90;99.90
7388;DHT22;3735;50.136;11.062;2022-11-03T06:11:45;2.00;99.90
7388;DHT22;3735;50.136;11.062;2022-11-03T06:14:19;2.10;99.90
7388;DHT22;3735;50.136;11.062;2022-11-03T06:16:54;2.10;99.90
7388;DHT22;3735;50.136;11.062;2022-11-03T06:19:27;2.20;99.90
7388;DHT22;3735;50.136;11.062;2022-11-03T06:22:06;2.30;99.90
7388;DHT22;3735;50.136;11.062;2022-11-03T06:24:40;2.40;99.90
7388;DHT22;3735;50.136;11.062;2022-11-03T06:27:11;2.40;99.90
7388;DHT22;3735;50.136;11.062;2022-11-03T06:29:50;2.40;99.90
7388;DHT22;3735;50.136;11.062;2022-11-03T06:32:18;2.50;99.90
7388;DHT22;3735;50.136;11.062;2022-11-03T06:34:50;2.70;99.90
7388;DHT22;3735;50.136;11.062;2022-11-03T06:37:30;2.80;99.90
7388;DHT22;3735;50.136;11.062;2022-11-03T06:40:01;2.90;99.90
7388;DHT22;3735;50.136;11.062;2022-11-03T06:42:36;3.00;99.90
7388;DHT22;3735;50.136;11.062;2022-11-03T06:45:17;3.00;99.90
7388;DHT22;3735;50.136;11.062;2022-11-03T06:47:46;3.10;99.90
7388;DHT22;3735;50.136;11.062;2022-11-03T06:50:23;3.10;99.90
7388;DHT22;3735;50.136;11.062;2022-11-03T06:52:52;3.20;99.90
7388;DHT22;3735;50.136;11.062;2022-11-03T06:55:30;3.30;99.90
7388;DHT22;3735;50.136;11.062;2022-11-03T06:58:23;3.40;99.90
7388;DHT22;3735;50.136;11.062;2022-11-03T07:00:51;3.50;99.90
7388;DHT22;3735;50.136;11.062;2022-11-03T07:06:03;3.80;99.90
7388;DHT22;3735;50.136;11.062;2022-11-03T07:08:59;3.90;99.90
7388;DHT22;3735;50.136;11.062;2022-11-03T07:11:29;4.10;99.90
7388;DHT22;3735;50.136;11.062;2022-11-03T07:14:13;4.20;99.90
7388;DHT22;3735;50.136;11.062;2022-11-03T07:16:44;4.40;99.90
7388;DHT22;3735;50.136;11.062;2022-11-03T07:19:27;4.50;99.90
7388;DHT22;3735;50.136;11.062;2022-11-03T07:22:15;4.60;99.90
7388;DHT22;3735;50.136;11.062;2022-11-03T07:24:47;4.80;99.90
7388;DHT22;3735;50.136;11.062;2022-11-03T07:27:24;4.90;99.90
7388;DHT22;3735;50.136;11.062;2022-11-03T07:30:12;5.00;99.90
7388;DHT22;3735;50.136;11.062;2022-11-03T07:32:41;5.20;99.90
7388;DHT22;3735;50.136;11.062;2022-11-03T07:37:42;5.80;99.90
7388;DHT22;3735;50.136;11.062;2022-11-03T07:40:21;5.80;99.90
7388;DHT22;3735;50.136;11.062;2022-11-03T07:42:50;6.10;99.90
7388;DHT22;3735;50.136;11.062;2022-11-03T07:45:51;6.70;99.90
7388;DHT22;3735;50.136;11.062;2022-11-03T07:51:19;9.00;99.90
7388;DHT22;3735;50.136;11.062;2022-11-03T07:53:53;10.10;99.90
7388;DHT22;3735;50.136;11.062;2022-11-03T07:56:31;10.70;99.90
7388;DHT22;3735;50.136;11.062;2022-11-03T07:59:08;11.40;99.90
7388;DHT22;3735;50.136;11.062;2022-11-03T08:01:41;11.50;99.90
7388;DHT22;3735;50.136;11.062;2022-11-03T08:04:12;11.00;99.90
7388;DHT22;3735;50.136;11.062;2022-11-03T08:06:42;10.50;99.90
7388;DHT22;3735;50.136;11.062;2022-11-03T08:09:08;10.30;99.90
7388;DHT22;3735;50.136;11.062;2022-11-03T08:11:34;10.00;99.90
7388;DHT22;3735;50.136;11.062;2022-11-03T08:13:59;9.90;99.90
7388;DHT22;3735;50.136;11.062;2022-11-03T08:16:25;9.90;99.90
7388;DHT22;3735;50.136;11.062;2022-11-03T08:18:51;9.90;99.90
7388;DHT22;3735;50.136;11.062;2022-11-03T08:21:17;9.80;99.90
7388;DHT22;3735;50.136;11.062;2022-11-03T08:23:42;10.00;99.90
7388;DHT22;3735;50.136;11.062;2022-11-03T08:26:08;10.00;99.90
7388;DHT22;3735;50.136;11.062;2022-11-03T08:28:34;10.00;99.90
7388;DHT22;3735;50.136;11.062;2022-11-03T08:31:00;10.00;99.90
7388;DHT22;3735;50.136;11.062;2022-11-03T08:33:32;10.10;99.90
7388;DHT22;3735;50.136;11.062;2022-11-03T08:36:00;10.20;99.90
7388;DHT22;3735;50.136;11.062;2022-11-03T08:38:27;10.30;99.90
7388;DHT22;3735;50.136;11.062;2022-11-03T08:40:54;10.40;99.90
7388;DHT22;3735;50.136;11.062;2022-11-03T08:43:21;10.50;99.90
7388;DHT22;3735;50.136;11.062;2022-11-03T08:45:47;10.70;99.90
7388;DHT22;3735;50.136;11.062;2022-11-03T08:48:25;10.90;99.90
7388;DHT22;3735;50.136;11.062;2022-11-03T08:50:52;11.00;99.90
7388;DHT22;3735;50.136;11.062;2022-11-03T08:53:20;11.20;99.90
7388;DHT22;3735;50.136;11.062;2022-11-03T08:55:49;11.40;99.90
7388;DHT22;3735;50.136;11.062;2022-11-03T08:58:15;11.80;99.90
7388;DHT22;3735;50.136;11.062;2022-11-03T09:00:40;12.00;99.90
7388;DHT22;3735;50.136;11.062;2022-11-03T09:03:07;12.40;99.90
7388;DHT22;3735;50.136;11.062;2022-11-03T09:05:32;13.30;99.90
7388;DHT22;3735;50.136;11.062;2022-11-03T09:07:58;13.90;99.90
7388;DHT22;3735;50.136;11.062;2022-11-03T09:10:24;14.40;99.90
7388;DHT22;3735;50.136;11.062;2022-11-03T09:12:51;15.10;99.90
7388;DHT22;3735;50.136;11.062;2022-11-03T09:15:17;15.90;99.90
7388;DHT22;3735;50.136;11.062;2022-11-03T09:17:43;16.30;99.90
7388;DHT22;3735;50.136;11.062;2022-11-03T09:20:09;16.20;99.90
7388;DHT22;3735;50.136;11.062;2022-11-03T09:22:36;16.20;99.90
7388;DHT22;3735;50.136;11.062;2022-11-03T09:25:02;16.70;99.90
7388;DHT22;3735;50.136;11.062;2022-11-03T09:27:27;17.10;99.90
7388;DHT22;3735;50.136;11.062;2022-11-03T09:29:53;17.00;99.90
7388;DHT22;3735;50.136;11.062;2022-11-03T09:32:19;16.90;99.90
7388;DHT22;3735;50.136;11.062;2022-11-03T09:34:45;16.90;99.90
7388;DHT22;3735;50.136;11.062;2022-11-03T09:37:11;17.30;99.90
7388;DHT22;3735;50.136;11.062;2022-11-03T09:39:36;18.10;99.90
7388;DHT22;3735;50.136;11.062;2022-11-03T09:42:03;18.80;99.90
7388;DHT22;3735;50.136;11.062;2022-11-03T09:44:33;19.00;99.90
7388;DHT22;3735;50.136;11.062;2022-11-03T09:47:01;19.10;99.90
7388;DHT22;3735;50.136;11.062;2022-11-03T09:49:31;19.00;99.90
7388;DHT22;3735;50.136;11.062;2022-11-03T09:52:00;18.80;99.90
7388;DHT22;3735;50.136;11.062;2022-11-03T09:54:27;18.60;99.90
7388;DHT22;3735;50.136;11.062;2022-11-03T09:56:58;18.60;99.90
7388;DHT22;3735;50.136;11.062;2022-11-03T09:59:33;18.60;99.90
7388;DHT22;3735;50.136;11.062;2022-11-03T10:02:01;18.80;99.90
7388;DHT22;3735;50.136;11.062;2022-11-03T10:04:28;18.60;99.90
7388;DHT22;3735;50.136;11.062;2022-11-03T10:06:57;18.50;99.90
7388;DHT22;3735;50.136;11.062;2022-11-03T10:09:23;18.40;99.90
7388;DHT22;3735;50.136;11.062;2022-11-03T10:11:53;18.40;99.90
7388;DHT22;3735;50.136;11.062;2022-11-03T10:14:20;18.60;99.90
7388;DHT22;3735;50.136;11.062;2022-11-03T10:16:57;18.70;99.90
7388;DHT22;3735;50.136;11.062;2022-11-03T10:19:27;19.00;99.90
7388;DHT22;3735;50.136;11.062;2022-11-03T10:21:52;19.60;99.90
7388;DHT22;3735;50.136;11.062;2022-11-03T10:24:19;20.60;99.90
7388;DHT22;3735;50.136;11.062;2022-11-03T10:26:52;21.70;99.90
7388;DHT22;3735;50.136;11.062;2022-11-03T10:29:23;22.50;99.90
7388;DHT22;3735;50.136;11.062;2022-11-03T10:31:53;23.10;99.90
7388;DHT22;3735;50.136;11.062;2022-11-03T10:34:24;23.40;99.90
7388;DHT22;3735;50.136;11.062;2022-11-03T10:39:38;23.70;99.90
7388;DHT22;3735;50.136;11.062;2022-11-03T10:42:04;24.00;99.90
7388;DHT22;3735;50.136;11.062;2022-11-03T10:44:30;24.70;99.90
7388;DHT22;3735;50.136;11.062;2022-11-03T10:46:57;25.60;99.90
7388;DHT22;3735;50.136;11.062;2022-11-03T10:49:43;26.20;99.90
7388;DHT22;3735;50.136;11.062;2022-11-03T10:52:20;26.40;99.90
7388;DHT22;3735;50.136;11.062;2022-11-03T10:54:52;26.60;99.90
7388;DHT22;3735;50.136;11.062;2022-11-03T10:57:20;26.30;99.90
7388;DHT22;3735;50.136;11.062;2022-11-03T10:59:49;26.60;99.90
7388;DHT22;3735;50.136;11.062;2022-11-03T11:02:23;26.80;99.90
7388;DHT22;3735;50.136;11.062;2022-11-03T11:04:58;26.90;99.90
7388;DHT22;3735;50.136;11.062;2022-11-03T11:07:34;27.20;99.90
7388;DHT22;3735;50.136;11.062;2022-11-03T11:10:24;26.80;99.90
7388;DHT22;3735;50.136;11.062;2022-11-03T11:15:47;25.50;99.90
7388;DHT22;3735;50.136;11.062;2022-11-03T11:23:43;25.00;99.90
7388;DHT22;3735;50.136;11.062;2022-11-03T11:29:33;24.30;99.90
7388;DHT22;3735;50.136;11.062;2022-11-03T11:35:01;22.70;99.90
7388;DHT22;3735;50.136;11.062;2022-11-03T11:39:52;21.90;99.90
7388;DHT22;3735;50.136;11.062;2022-11-03T11:42:19;21.90;99.90
7388;DHT22;3735;50.136;11.062;2022-11-03T11:50:22;20.90;99.90
7388;DHT22;3735;50.136;11.062;2022-11-03T11:53:02;20.50;99.90
7388;DHT22;3735;50.136;11.062;2022-11-03T11:55:44;20.40;99.90
7388;DHT22;3735;50.136;11.062;2022-11-03T11:58:22;20.30;99.90
7388;DHT22;3735;50.136;11.062;2022-11-03T12:00:58;20.20;99.90
7388;DHT22;3735;50.136;11.062;2022-11-03T12:03:29;20.10;99.90
7388;DHT22;3735;50.136;11.062;2022-11-03T12:06:06;19.70;99.90
7388;DHT22;3735;50.136;11.062;2022-11-03T12:08:32;19.30;99.90
7388;DHT22;3735;50.136;11.062;2022-11-03T12:11:01;19.00;99.90
7388;DHT22;3735;50.136;11.062;2022-11-03T12:13:41;18.90;99.90
7388;DHT22;3735;50.136;11.062;2022-11-03T12:16:09;18.80;99.90
7388;DHT22;3735;50.136;11.062;2022-11-03T12:18:40;18.90;99.90
7388;DHT22;3735;50.136;11.062;2022-11-03T12:21:09;19.00;99.90
7388;DHT22;3735;50.136;11.062;2022-11-03T12:23:44;19.10;99.90
7388;DHT22;3735;50.136;11.062;2022-11-03T12:28:49;19.40;99.90
7388;DHT22;3735;50.136;11.062;2022-11-03T12:31:15;19.60;99.90
7388;DHT22;3735;50.136;11.062;2022-11-03T12:33:41;19.90;99.90
7388;DHT22;3735;50.136;11.062;2022-11-03T12:36:07;20.10;99.90
7388;DHT22;3735;50.136;11.062;2022-11-03T12:38:34;20.10;99.90
7388;DHT22;3735;50.136;11.062;2022-11-03T12:41:00;20.00;99.90
7388;DHT22;3735;50.136;11.062;2022-11-03T12:43:46;20.00;99.90
7388;DHT22;3735;50.136;11.062;2022-11-03T12:46:14;20.10;99.90
7388;DHT22;3735;50.136;11.062;2022-11-03T12:48:40;20.60;99.90
7388;DHT22;3735;50.136;11.062;2022-11-03T12:51:13;20.80;99.90
7388;DHT22;3735;50.136;11.062;2022-11-03T12:53:40;21.20;99.90
7388;DHT22;3735;50.136;11.062;2022-11-03T12:56:07;21.30;99.90
7388;DHT22;3735;50.136;11.062;2022-11-03T12:58:34;21.00;99.90
7388;DHT22;3735;50.136;11.062;2022-11-03T13:01:01;20.60;99.90
7388;DHT22;3735;50.136;11.062;2022-11-03T13:03:27;20.60;99.90
7388;DHT22;3735;50.136;11.062;2022-11-03T13:05:54;20.70;99.90
7388;DHT22;3735;50.136;11.062;2022-11-03T13:08:20;20.60;99.90
7388;DHT22;3735;50.136;11.062;2022-11-03T13:10:46;20.30;99.90
7388;DHT22;3735;50.136;11.062;2022-11-03T13:13:12;19.90;99.90
7388;DHT22;3735;50.136;11.062;2022-11-03T13:15:38;19.50;99.90
7388;DHT22;3735;50.136;11.062;2022-11-03T13:18:04;19.10;99.90
7388;DHT22;3735;50.136;11.062;2022-11-03T13:20:33;18.80;99.90
7388;DHT22;3735;50.136;11.062;2022-11-03T13:23:00;18.30;99.90
7388;DHT22;3735;50.136;11.062;2022-11-03T13:25:27;17.80;99.90
7388;DHT22;3735;50.136;11.062;2022-11-03T13:27:53;17.30;99.90
7388;DHT22;3735;50.136;11.062;2022-11-03T13:30:21;17.10;99.90
7388;DHT22;3735;50.136;11.062;2022-11-03T13:32:48;16.70;99.90
7388;DHT22;3735;50.136;11.062;2022-11-03T13:35:14;16.50;99.90
7388;DHT22;3735;50.136;11.062;2022-11-03T13:37:40;16.30;99.90
7388;DHT22;3735;50.136;11.062;2022-11-03T13:40:06;16.10;99.90
7388;DHT22;3735;50.136;11.062;2022-11-03T13:42:33;15.90;99.90
7388;DHT22;3735;50.136;11.062;2022-11-03T13:44:58;15.80;99.90
7388;DHT22;3735;50.136;11.062;2022-11-03T13:47:25;15.60;99.90
7388;DHT22;3735;50.136;11.062;2022-11-03T13:49:51;15.50;99.90
7388;DHT22;3735;50.136;11.062;2022-11-03T13:52:20;15.30;99.90
7388;DHT22;3735;50.136;11.062;2022-11-03T13:54:47;15.20;99.90
7388;DHT22;3735;50.136;11.062;2022-11-03T13:57:13;15.00;99.90
7388;DHT22;3735;50.136;11.062;2022-11-03T13:59:38;14.90;99.90
7388;DHT22;3735;50.136;11.062;2022-11-03T14:02:05;14.70;99.90
7388;DHT22;3735;50.136;11.062;2022-11-03T14:04:31;14.60;99.90
7388;DHT22;3735;50.136;11.062;2022-11-03T14:06:57;14.50;99.90
7388;DHT22;3735;50.136;11.062;2022-11-03T14:09:23;14.40;99.90
7388;DHT22;3735;50.136;11.062;2022-11-03T14:11:49;14.30;99.90
7388;DHT22;3735;50.136;11.062;2022-11-03T14:14:33;14.20;99.90
7388;DHT22;3735;50.136;11.062;2022-11-03T14:16:59;14.20;99.90
7388;DHT22;3735;50.136;11.062;2022-11-03T14:19:25;14.20;99.90
7388;DHT22;3735;50.136;11.062;2022-11-03T14:21:51;14.20;99.90
7388;DHT22;3735;50.136;11.062;2022-11-03T14:24:16;14.20;99.90
7388;DHT22;3735;50.136;11.062;2022-11-03T14:26:42;14.10;99.90
7388;DHT22;3735;50.136;11.062;2022-11-03T14:29:08;14.00;99.90
7388;DHT22;3735;50.136;11.062;2022-11-03T14:31:34;14.00;99.90
7388;DHT22;3735;50.136;11.062;2022-11-03T14:34:00;13.90;99.90
7388;DHT22;3735;50.136;11.062;2022-11-03T14:36:26;13.80;99.90
7388;DHT22;3735;50.136;11.062;2022-11-03T14:38:52;13.70;99.90
7388;DHT22;3735;50.136;11.062;2022-11-03T14:41:18;13.60;99.90
7388;DHT22;3735;50.136;11.062;2022-11-03T14:44:02;13.50;99.90
7388;DHT22;3735;50.136;11.062;2022-11-03T14:46:28;13.40;99.90
7388;DHT22;3735;50.136;11.062;2022-11-03T14:48:54;13.30;99.90
7388;DHT22;3735;50.136;11.062;2022-11-03T14:51:20;13.10;99.90
7388;DHT22;3735;50.136;11.062;2022-11-03T14:53:46;13.00;99.90
7388;DHT22;3735;50.136;11.062;2022-11-03T14:56:12;12.80;99.90
7388;DHT22;3735;50.136;11.062;2022-11-03T14:58:37;12.70;99.90
7388;DHT22;3735;50.136;11.062;2022-11-03T15:01:03;12.60;99.90
7388;DHT22;3735;50.136;11.062;2022-11-03T15:03:30;12.40;99.90
7388;DHT22;3735;50.136;11.062;2022-11-03T15:05:55;12.20;99.90
7388;DHT22;3735;50.136;11.062;2022-11-03T15:08:22;12.20;99.90
7388;DHT22;3735;50.136;11.062;2022-11-03T15:10:49;12.10;99.90
7388;DHT22;3735;50.136;11.062;2022-11-03T15:13:15;12.00;99.90
7388;DHT22;3735;50.136;11.062;2022-11-03T15:15:41;11.90;99.90
7388;DHT22;3735;50.136;11.062;2022-11-03T15:18:10;11.90;99.90
7388;DHT22;3735;50.136;11.062;2022-11-03T15:20:36;11.80;99.90
7388;DHT22;3735;50.136;11.062;2022-11-03T15:23:03;11.70;99.90
7388;DHT22;3735;50.136;11.062;2022-11-03T15:25:30;11.70;99.90
7388;DHT22;3735;50.136;11.062;2022-11-03T15:27:56;11.80;99.90
7388;DHT22;3735;50.136;11.062;2022-11-03T15:30:23;11.90;99.90
7388;DHT22;3735;50.136;11.062;2022-11-03T15:32:49;11.90;99.90
7388;DHT22;3735;50.136;11.062;2022-11-03T15:35:15;11.80;99.90
7388;DHT22;3735;50.136;11.062;2022-11-03T15:37:41;11.70;99.90
7388;DHT22;3735;50.136;11.062;2022-11-03T15:40:09;11.70;99.90
7388;DHT22;3735;50.136;11.062;2022-11-03T15:42:38;11.70;99.90
7388;DHT22;3735;50.136;11.062;2022-11-03T15:45:05;11.60;99.90
7388;DHT22;3735;50.136;11.062;2022-11-03T15:47:32;11.40;99.90
7388;DHT22;3735;50.136;11.062;2022-11-03T15:49:58;11.50;99.90
7388;DHT22;3735;50.136;11.062;2022-11-03T15:52:24;11.40;99.90
7388;DHT22;3735;50.136;11.062;2022-11-03T15:54:50;11.30;99.90
7388;DHT22;3735;50.136;11.062;2022-11-03T15:57:16;11.20;99.90
7388;DHT22;3735;50.136;11.062;2022-11-03T15:59:41;11.10;99.90
7388;DHT22;3735;50.136;11.062;2022-11-03T16:02:08;11.00;99.90
7388;DHT22;3735;50.136;11.062;2022-11-03T16:04:34;10.90;99.90
7388;DHT22;3735;50.136;11.062;2022-11-03T16:07:00;10.70;99.90
7388;DHT22;3735;50.136;11.062;2022-11-03T16:09:26;10.70;99.90
7388;DHT22;3735;50.136;11.062;2022-11-03T16:11:52;10.60;99.90
7388;DHT22;3735;50.136;11.062;2022-11-03T16:14:17;10.50;99.90
7388;DHT22;3735;50.136;11.062;2022-11-03T16:16:43;10.50;99.90
7388;DHT22;3735;50.136;11.062;2022-11-03T16:19:09;10.40;99.90
7388;DHT22;3735;50.136;11.062;2022-11-03T16:21:35;10.40;99.90
7388;DHT22;3735;50.136;11.062;2022-11-03T16:24:02;10.40;99.90
7388;DHT22;3735;50.136;11.062;2022-11-03T16:26:28;10.40;99.90
7388;DHT22;3735;50.136;11.062;2022-11-03T16:28:56;10.40;99.90
7388;DHT22;3735;50.136;11.062;2022-11-03T16:31:22;10.40;99.90
7388;DHT22;3735;50.136;11.062;2022-11-03T16:33:48;10.30;99.90
7388;DHT22;3735;50.136;11.062;2022-11-03T16:36:16;10.30;99.90
7388;DHT22;3735;50.136;11.062;2022-11-03T16:38:43;10.20;99.90
7388;DHT22;3735;50.136;11.062;2022-11-03T16:41:10;10.20;99.90
7388;DHT22;3735;50.136;11.062;2022-11-03T16:43:36;10.20;99.90
7388;DHT22;3735;50.136;11.062;2022-11-03T16:46:02;10.20;99.90
7388;DHT22;3735;50.136;11.062;2022-11-03T16:48:28;10.20;99.90
7388;DHT22;3735;50.136;11.062;2022-11-03T16:50:54;10.10;99.90
7388;DHT22;3735;50.136;11.062;2022-11-03T16:53:22;10.00;99.90
7388;DHT22;3735;50.136;11.062;2022-11-03T16:55:49;9.90;99.90
7388;DHT22;3735;50.136;11.062;2022-11-03T16:58:14;9.80;99.90
7388;DHT22;3735;50.136;11.062;2022-11-03T17:00:41;9.80;99.90
7388;DHT22;3735;50.136;11.062;2022-11-03T17:03:07;9.80;99.90
7388;DHT22;3735;50.136;11.062;2022-11-03T17:05:34;9.80;99.90
7388;DHT22;3735;50.136;11.062;2022-11-03T17:08:00;9.80;99.90
7388;DHT22;3735;50.136;11.062;2022-11-03T17:10:26;9.80;99.90
7388;DHT22;3735;50.136;11.062;2022-11-03T17:12:53;9.80;99.90
7388;DHT22;3735;50.136;11.062;2022-11-03T17:15:19;9.80;99.90
7388;DHT22;3735;50.136;11.062;2022-11-03T17:17:45;10.00;99.90
7388;DHT22;3735;50.136;11.062;2022-11-03T17:20:12;10.00;99.90
7388;DHT22;3735;50.136;11.062;2022-11-03T17:22:38;10.00;99.90
7388;DHT22;3735;50.136;11.062;2022-11-03T17:25:05;10.00;99.90
7388;DHT22;3735;50.136;11.062;2022-11-03T17:30:25;9.80;99.90
7388;DHT22;3735;50.136;11.062;2022-11-03T17:32:55;9.70;99.90